Terminal Aerodrome Forecast
Issued by NWS Charleston, WV

Current Version | Previous Version | Graphics & Text | Print | Product List | Glossary On
Versions: 1 2 3 4 5 6 7 8 9 10 11 12 13 14 15 16 17 18 19 20 21 22
000
FTUS41 KRLX 261400 AAA
TAFEKN
TAF AMD
KEKN 261436Z 2615/2712 VRB03KT 6SM -SN BKN035 OVC080
     FM261700 32005KT P6SM BKN030
     FM262300 32007KT 5SM -SHSN OVC025
     FM270400 31005KT 2SM -SHSN BR BKN015
     FM271000 31005KT 5SM -SHSN BKN025=

USA.gov is the U.S. government's official web portal to all federal, state and local government web resources and services.